Terminal Aerodrome Forecast
Issued by NWS Cleveland, OH

Home | Current Version | Previous Version | Text Only | Print | Product List | Glossary Off
Versions: 1 2 3 4 5 6 7 8 9 10 11 12 13 14

000
FTUS41 KCLE 310533
TAFMFD
TAF
KMFD 310533Z 3106/0106 20005KT P6SM BKN150
     FM310900 VRB03KT 4SM BR SCT150
      TEMPO 3111/3113 2SM BR
     FM311400 25006KT P6SM SCT040
      TEMPO 3116/3120 BKN040=

USA.gov is the U.S. government's official web portal to all federal, state and local government web resources and services.